sensor_id;sensor_type;location;lat;lon;timestamp;P1;P2;P0
54553;PMS5003;40450;55.848;-3.572;2023-05-18T00:01:04;8;8;
54553;PMS5003;40450;55.848;-3.572;2023-05-18T00:03:34;11;11;
54553;PMS5003;40450;55.848;-3.572;2023-05-18T00:06:04;9;9;
54553;PMS5003;40450;55.848;-3.572;2023-05-18T00:08:35;10;8;
54553;PMS5003;40450;55.848;-3.572;2023-05-18T00:11:05;10;10;
54553;PMS5003;40450;55.848;-3.572;2023-05-18T00:13:35;12;12;
54553;PMS5003;40450;55.848;-3.572;2023-05-18T00:16:05;8;7;
54553;PMS5003;40450;55.848;-3.572;2023-05-18T00:18:36;11;9;
54553;PMS5003;40450;55.848;-3.572;2023-05-18T00:21:06;12;10;
54553;PMS5003;40450;55.848;-3.572;2023-05-18T00:23:37;12;10;
54553;PMS5003;40450;55.848;-3.572;2023-05-18T00:26:07;11;10;
54553;PMS5003;40450;55.848;-3.572;2023-05-18T00:28:38;12;9;
54553;PMS5003;40450;55.848;-3.572;2023-05-18T00:31:08;11;8;
54553;PMS5003;40450;55.848;-3.572;2023-05-18T00:33:38;10;8;
54553;PMS5003;40450;55.848;-3.572;2023-05-18T00:36:08;10;9;
54553;PMS5003;40450;55.848;-3.572;2023-05-18T00:38:38;10;10;
54553;PMS5003;40450;55.848;-3.572;2023-05-18T00:41:09;9;7;
54553;PMS5003;40450;55.848;-3.572;2023-05-18T00:43:39;10;9;
54553;PMS5003;40450;55.848;-3.572;2023-05-18T00:46:09;8;8;
54553;PMS5003;40450;55.848;-3.572;2023-05-18T00:48:40;9;8;
54553;PMS5003;40450;55.848;-3.572;2023-05-18T00:51:10;8;7;
54553;PMS5003;40450;55.848;-3.572;2023-05-18T00:53:40;11;8;
54553;PMS5003;40450;55.848;-3.572;2023-05-18T00:56:11;7;7;
54553;PMS5003;40450;55.848;-3.572;2023-05-18T00:58:41;8;8;
54553;PMS5003;40450;55.848;-3.572;2023-05-18T01:01:11;7;6;
54553;PMS5003;40450;55.848;-3.572;2023-05-18T01:03:42;12;10;
54553;PMS5003;40450;55.848;-3.572;2023-05-18T01:06:12;6;5;
54553;PMS5003;40450;55.848;-3.572;2023-05-18T01:08:43;8;8;
54553;PMS5003;40450;55.848;-3.572;2023-05-18T01:11:15;10;10;
54553;PMS5003;40450;55.848;-3.572;2023-05-18T01:13:46;9;6;
54553;PMS5003;40450;55.848;-3.572;2023-05-18T01:16:15;8;8;
54553;PMS5003;40450;55.848;-3.572;2023-05-18T01:18:45;6;6;
54553;PMS5003;40450;55.848;-3.572;2023-05-18T01:21:18;6;6;
54553;PMS5003;40450;55.848;-3.572;2023-05-18T01:26:16;7;5;
54553;PMS5003;40450;55.848;-3.572;2023-05-18T01:28:46;8;8;
54553;PMS5003;40450;55.848;-3.572;2023-05-18T01:31:16;5;5;
54553;PMS5003;40450;55.848;-3.572;2023-05-18T01:33:46;7;7;
54553;PMS5003;40450;55.848;-3.572;2023-05-18T01:36:16;5;5;
54553;PMS5003;40450;55.848;-3.572;2023-05-18T01:38:47;5;3;
54553;PMS5003;40450;55.848;-3.572;2023-05-18T01:41:17;4;4;
54553;PMS5003;40450;55.848;-3.572;2023-05-18T01:43:51;7;6;
54553;PMS5003;40450;55.848;-3.572;2023-05-18T01:46:20;9;7;
54553;PMS5003;40450;55.848;-3.572;2023-05-18T01:48:50;7;6;
54553;PMS5003;40450;55.848;-3.572;2023-05-18T01:51:19;7;5;
54553;PMS5003;40450;55.848;-3.572;2023-05-18T01:53:51;6;6;
54553;PMS5003;40450;55.848;-3.572;2023-05-18T01:56:18;8;7;
54553;PMS5003;40450;55.848;-3.572;2023-05-18T01:58:49;6;6;
54553;PMS5003;40450;55.848;-3.572;2023-05-18T02:01:19;3;3;
54553;PMS5003;40450;55.848;-3.572;2023-05-18T02:03:50;6;6;
54553;PMS5003;40450;55.848;-3.572;2023-05-18T02:06:25;7;7;
54553;PMS5003;40450;55.848;-3.572;2023-05-18T02:08:50;6;6;
54553;PMS5003;40450;55.848;-3.572;2023-05-18T02:11:20;8;8;
54553;PMS5003;40450;55.848;-3.572;2023-05-18T02:13:51;7;7;
54553;PMS5003;40450;55.848;-3.572;2023-05-18T02:16:21;7;7;
54553;PMS5003;40450;55.848;-3.572;2023-05-18T02:18:51;7;5;
54553;PMS5003;40450;55.848;-3.572;2023-05-18T02:21:21;5;5;
54553;PMS5003;40450;55.848;-3.572;2023-05-18T02:23:52;5;5;
54553;PMS5003;40450;55.848;-3.572;2023-05-18T02:26:22;5;5;
54553;PMS5003;40450;55.848;-3.572;2023-05-18T02:28:53;4;4;
54553;PMS5003;40450;55.848;-3.572;2023-05-18T02:31:23;8;7;
54553;PMS5003;40450;55.848;-3.572;2023-05-18T02:33:53;4;4;
54553;PMS5003;40450;55.848;-3.572;2023-05-18T02:36:24;5;5;
54553;PMS5003;40450;55.848;-3.572;2023-05-18T02:38:54;5;5;
54553;PMS5003;40450;55.848;-3.572;2023-05-18T02:41:24;6;6;
54553;PMS5003;40450;55.848;-3.572;2023-05-18T02:43:54;5;4;
54553;PMS5003;40450;55.848;-3.572;2023-05-18T02:46:25;7;4;
54553;PMS5003;40450;55.848;-3.572;2023-05-18T02:49:00;5;5;
54553;PMS5003;40450;55.848;-3.572;2023-05-18T02:51:25;4;4;
54553;PMS5003;40450;55.848;-3.572;2023-05-18T02:53:56;6;5;
54553;PMS5003;40450;55.848;-3.572;2023-05-18T02:56:26;5;5;
54553;PMS5003;40450;55.848;-3.572;2023-05-18T02:58:57;5;5;
54553;PMS5003;40450;55.848;-3.572;2023-05-18T03:01:27;6;4;
54553;PMS5003;40450;55.848;-3.572;2023-05-18T03:03:57;5;3;
54553;PMS5003;40450;55.848;-3.572;2023-05-18T03:06:27;4;4;
54553;PMS5003;40450;55.848;-3.572;2023-05-18T03:08:57;6;4;
54553;PMS5003;40450;55.848;-3.572;2023-05-18T03:11:28;4;4;
54553;PMS5003;40450;55.848;-3.572;2023-05-18T03:13:58;6;4;
54553;PMS5003;40450;55.848;-3.572;2023-05-18T03:16:29;4;3;
54553;PMS5003;40450;55.848;-3.572;2023-05-18T03:18:59;5;5;
54553;PMS5003;40450;55.848;-3.572;2023-05-18T03:21:29;6;6;
54553;PMS5003;40450;55.848;-3.572;2023-05-18T03:24:00;5;5;
54553;PMS5003;40450;55.848;-3.572;2023-05-18T03:26:30;6;4;
54553;PMS5003;40450;55.848;-3.572;2023-05-18T03:29:00;7;5;
54553;PMS5003;40450;55.848;-3.572;2023-05-18T03:31:31;9;7;
54553;PMS5003;40450;55.848;-3.572;2023-05-18T03:34:01;4;4;
54553;PMS5003;40450;55.848;-3.572;2023-05-18T03:36:31;8;6;
54553;PMS5003;40450;55.848;-3.572;2023-05-18T03:39:02;7;6;
54553;PMS5003;40450;55.848;-3.572;2023-05-18T03:41:33;7;5;
54553;PMS5003;40450;55.848;-3.572;2023-05-18T03:44:03;8;6;
54553;PMS5003;40450;55.848;-3.572;2023-05-18T03:46:33;5;5;
54553;PMS5003;40450;55.848;-3.572;2023-05-18T03:49:04;5;5;
54553;PMS5003;40450;55.848;-3.572;2023-05-18T03:51:34;7;6;
54553;PMS5003;40450;55.848;-3.572;2023-05-18T03:54:04;4;4;
54553;PMS5003;40450;55.848;-3.572;2023-05-18T03:56:35;3;3;
54553;PMS5003;40450;55.848;-3.572;2023-05-18T03:59:05;5;5;
54553;PMS5003;40450;55.848;-3.572;2023-05-18T04:01:35;3;3;
54553;PMS5003;40450;55.848;-3.572;2023-05-18T04:04:05;6;6;
54553;PMS5003;40450;55.848;-3.572;2023-05-18T04:06:36;6;4;
54553;PMS5003;40450;55.848;-3.572;2023-05-18T04:09:06;6;5;
54553;PMS5003;40450;55.848;-3.572;2023-05-18T04:11:36;5;4;
54553;PMS5003;40450;55.848;-3.572;2023-05-18T04:14:07;5;4;
54553;PMS5003;40450;55.848;-3.572;2023-05-18T04:16:37;4;4;
54553;PMS5003;40450;55.848;-3.572;2023-05-18T04:19:07;5;4;
54553;PMS5003;40450;55.848;-3.572;2023-05-18T04:21:38;5;3;
54553;PMS5003;40450;55.848;-3.572;2023-05-18T04:24:08;4;4;
54553;PMS5003;40450;55.848;-3.572;2023-05-18T04:26:38;6;6;
54553;PMS5003;40450;55.848;-3.572;2023-05-18T04:29:14;4;4;
54553;PMS5003;40450;55.848;-3.572;2023-05-18T04:31:39;4;4;
54553;PMS5003;40450;55.848;-3.572;2023-05-18T04:34:09;4;4;
54553;PMS5003;40450;55.848;-3.572;2023-05-18T04:36:40;5;5;
54553;PMS5003;40450;55.848;-3.572;2023-05-18T04:39:10;6;6;
54553;PMS5003;40450;55.848;-3.572;2023-05-18T04:41:40;4;4;
54553;PMS5003;40450;55.848;-3.572;2023-05-18T04:44:10;3;3;
54553;PMS5003;40450;55.848;-3.572;2023-05-18T04:46:40;6;6;
54553;PMS5003;40450;55.848;-3.572;2023-05-18T04:49:11;5;5;
54553;PMS5003;40450;55.848;-3.572;2023-05-18T04:51:41;5;5;
54553;PMS5003;40450;55.848;-3.572;2023-05-18T04:54:11;6;6;
54553;PMS5003;40450;55.848;-3.572;2023-05-18T04:56:42;6;5;
54553;PMS5003;40450;55.848;-3.572;2023-05-18T04:59:12;10;7;
54553;PMS5003;40450;55.848;-3.572;2023-05-18T05:01:42;6;6;
54553;PMS5003;40450;55.848;-3.572;2023-05-18T05:04:13;8;6;
54553;PMS5003;40450;55.848;-3.572;2023-05-18T05:06:43;6;6;
54553;PMS5003;40450;55.848;-3.572;2023-05-18T05:09:13;9;9;
54553;PMS5003;40450;55.848;-3.572;2023-05-18T05:11:44;10;10;
54553;PMS5003;40450;55.848;-3.572;2023-05-18T05:14:14;10;10;
54553;PMS5003;40450;55.848;-3.572;2023-05-18T05:16:44;12;10;
54553;PMS5003;40450;55.848;-3.572;2023-05-18T05:19:15;10;10;
54553;PMS5003;40450;55.848;-3.572;2023-05-18T05:21:45;8;8;
54553;PMS5003;40450;55.848;-3.572;2023-05-18T05:24:16;12;10;
54553;PMS5003;40450;55.848;-3.572;2023-05-18T05:26:46;12;9;
54553;PMS5003;40450;55.848;-3.572;2023-05-18T05:29:17;11;10;
54553;PMS5003;40450;55.848;-3.572;2023-05-18T05:31:47;11;10;
54553;PMS5003;40450;55.848;-3.572;2023-05-18T05:34:17;13;10;
54553;PMS5003;40450;55.848;-3.572;2023-05-18T05:36:47;11;10;
54553;PMS5003;40450;55.848;-3.572;2023-05-18T05:39:17;13;11;
54553;PMS5003;40450;55.848;-3.572;2023-05-18T05:41:48;13;8;
54553;PMS5003;40450;55.848;-3.572;2023-05-18T05:44:18;9;9;
54553;PMS5003;40450;55.848;-3.572;2023-05-18T05:46:48;10;8;
54553;PMS5003;40450;55.848;-3.572;2023-05-18T05:49:19;10;9;
54553;PMS5003;40450;55.848;-3.572;2023-05-18T05:51:49;7;7;
54553;PMS5003;40450;55.848;-3.572;2023-05-18T05:54:19;10;10;
54553;PMS5003;40450;55.848;-3.572;2023-05-18T05:56:50;13;9;
54553;PMS5003;40450;55.848;-3.572;2023-05-18T05:59:20;8;7;
54553;PMS5003;40450;55.848;-3.572;2023-05-18T06:01:51;9;8;
54553;PMS5003;40450;55.848;-3.572;2023-05-18T06:04:21;9;8;
54553;PMS5003;40450;55.848;-3.572;2023-05-18T06:06:51;8;8;
54553;PMS5003;40450;55.848;-3.572;2023-05-18T06:09:22;12;11;
54553;PMS5003;40450;55.848;-3.572;2023-05-18T06:11:52;9;9;
54553;PMS5003;40450;55.848;-3.572;2023-05-18T06:14:22;11;8;
54553;PMS5003;40450;55.848;-3.572;2023-05-18T06:16:53;6;6;
54553;PMS5003;40450;55.848;-3.572;2023-05-18T06:19:23;9;8;
54553;PMS5003;40450;55.848;-3.572;2023-05-18T06:21:53;7;5;
54553;PMS5003;40450;55.848;-3.572;2023-05-18T06:24:23;9;8;
54553;PMS5003;40450;55.848;-3.572;2023-05-18T06:26:53;6;6;
54553;PMS5003;40450;55.848;-3.572;2023-05-18T06:29:24;7;7;
54553;PMS5003;40450;55.848;-3.572;2023-05-18T06:31:54;10;7;
54553;PMS5003;40450;55.848;-3.572;2023-05-18T06:34:25;9;9;
54553;PMS5003;40450;55.848;-3.572;2023-05-18T06:36:55;9;8;
54553;PMS5003;40450;55.848;-3.572;2023-05-18T06:39:25;8;8;
54553;PMS5003;40450;55.848;-3.572;2023-05-18T06:41:56;12;11;
54553;PMS5003;40450;55.848;-3.572;2023-05-18T06:44:26;10;9;
54553;PMS5003;40450;55.848;-3.572;2023-05-18T06:46:56;11;11;
54553;PMS5003;40450;55.848;-3.572;2023-05-18T06:49:26;11;11;
54553;PMS5003;40450;55.848;-3.572;2023-05-18T06:51:56;15;12;
54553;PMS5003;40450;55.848;-3.572;2023-05-18T06:54:26;14;10;
54553;PMS5003;40450;55.848;-3.572;2023-05-18T06:56:56;8;8;
54553;PMS5003;40450;55.848;-3.572;2023-05-18T06:59:27;8;8;
54553;PMS5003;40450;55.848;-3.572;2023-05-18T07:01:57;6;6;
54553;PMS5003;40450;55.848;-3.572;2023-05-18T07:04:27;8;5;
54553;PMS5003;40450;55.848;-3.572;2023-05-18T07:06:57;5;5;
54553;PMS5003;40450;55.848;-3.572;2023-05-18T07:09:28;5;5;
54553;PMS5003;40450;55.848;-3.572;2023-05-18T07:11:58;9;4;
54553;PMS5003;40450;55.848;-3.572;2023-05-18T07:14:28;5;5;
54553;PMS5003;40450;55.848;-3.572;2023-05-18T07:16:59;5;5;
54553;PMS5003;40450;55.848;-3.572;2023-05-18T07:19:29;5;5;
54553;PMS5003;40450;55.848;-3.572;2023-05-18T07:21:59;7;5;
54553;PMS5003;40450;55.848;-3.572;2023-05-18T07:24:29;4;4;
54553;PMS5003;40450;55.848;-3.572;2023-05-18T07:27:00;4;4;
54553;PMS5003;40450;55.848;-3.572;2023-05-18T07:29:32;6;5;
54553;PMS5003;40450;55.848;-3.572;2023-05-18T07:32:00;9;7;
54553;PMS5003;40450;55.848;-3.572;2023-05-18T07:34:31;8;4;
54553;PMS5003;40450;55.848;-3.572;2023-05-18T07:37:01;5;5;
54553;PMS5003;40450;55.848;-3.572;2023-05-18T07:39:31;6;5;
54553;PMS5003;40450;55.848;-3.572;2023-05-18T07:42:02;5;5;
54553;PMS5003;40450;55.848;-3.572;2023-05-18T07:44:32;6;5;
54553;PMS5003;40450;55.848;-3.572;2023-05-18T07:47:03;3;3;
54553;PMS5003;40450;55.848;-3.572;2023-05-18T07:49:33;4;2;
54553;PMS5003;40450;55.848;-3.572;2023-05-18T07:52:04;4;4;
54553;PMS5003;40450;55.848;-3.572;2023-05-18T07:54:33;4;4;
54553;PMS5003;40450;55.848;-3.572;2023-05-18T07:57:04;7;5;
54553;PMS5003;40450;55.848;-3.572;2023-05-18T07:59:34;5;5;
54553;PMS5003;40450;55.848;-3.572;2023-05-18T08:02:05;5;5;
54553;PMS5003;40450;55.848;-3.572;2023-05-18T08:04:34;5;5;
54553;PMS5003;40450;55.848;-3.572;2023-05-18T08:07:05;4;4;
54553;PMS5003;40450;55.848;-3.572;2023-05-18T08:09:35;3;3;
54553;PMS5003;40450;55.848;-3.572;2023-05-18T08:12:06;5;5;
54553;PMS5003;40450;55.848;-3.572;2023-05-18T08:14:36;3;3;
54553;PMS5003;40450;55.848;-3.572;2023-05-18T08:17:06;3;3;
54553;PMS5003;40450;55.848;-3.572;2023-05-18T08:19:37;3;3;
54553;PMS5003;40450;55.848;-3.572;2023-05-18T08:22:07;6;5;
54553;PMS5003;40450;55.848;-3.572;2023-05-18T08:24:37;12;6;
54553;PMS5003;40450;55.848;-3.572;2023-05-18T08:27:08;5;3;
54553;PMS5003;40450;55.848;-3.572;2023-05-18T08:29:38;3;3;
54553;PMS5003;40450;55.848;-3.572;2023-05-18T08:32:08;5;4;
54553;PMS5003;40450;55.848;-3.572;2023-05-18T08:34:39;4;4;
54553;PMS5003;40450;55.848;-3.572;2023-05-18T08:37:09;2;2;
54553;PMS5003;40450;55.848;-3.572;2023-05-18T08:39:39;2;2;
54553;PMS5003;40450;55.848;-3.572;2023-05-18T08:42:10;6;4;
54553;PMS5003;40450;55.848;-3.572;2023-05-18T08:44:43;6;5;
54553;PMS5003;40450;55.848;-3.572;2023-05-18T08:47:10;6;4;
54553;PMS5003;40450;55.848;-3.572;2023-05-18T08:49:41;4;3;
54553;PMS5003;40450;55.848;-3.572;2023-05-18T08:52:13;6;4;
54553;PMS5003;40450;55.848;-3.572;2023-05-18T08:54:41;6;4;
54553;PMS5003;40450;55.848;-3.572;2023-05-18T08:57:12;4;4;
54553;PMS5003;40450;55.848;-3.572;2023-05-18T08:59:42;3;3;
54553;PMS5003;40450;55.848;-3.572;2023-05-18T09:02:12;6;4;
54553;PMS5003;40450;55.848;-3.572;2023-05-18T09:04:43;4;4;
54553;PMS5003;40450;55.848;-3.572;2023-05-18T09:07:13;4;4;
54553;PMS5003;40450;55.848;-3.572;2023-05-18T09:09:44;4;4;
54553;PMS5003;40450;55.848;-3.572;2023-05-18T09:12:14;6;5;
54553;PMS5003;40450;55.848;-3.572;2023-05-18T09:14:44;5;3;
54553;PMS5003;40450;55.848;-3.572;2023-05-18T09:17:14;7;6;
54553;PMS5003;40450;55.848;-3.572;2023-05-18T09:19:45;4;4;
54553;PMS5003;40450;55.848;-3.572;2023-05-18T09:22:15;5;5;
54553;PMS5003;40450;55.848;-3.572;2023-05-18T09:24:46;5;4;
54553;PMS5003;40450;55.848;-3.572;2023-05-18T09:27:16;6;5;
54553;PMS5003;40450;55.848;-3.572;2023-05-18T09:32:17;4;3;
54553;PMS5003;40450;55.848;-3.572;2023-05-18T09:34:47;7;5;
54553;PMS5003;40450;55.848;-3.572;2023-05-18T09:37:17;4;4;
54553;PMS5003;40450;55.848;-3.572;2023-05-18T09:42:18;4;4;
54553;PMS5003;40450;55.848;-3.572;2023-05-18T09:44:48;6;4;
54553;PMS5003;40450;55.848;-3.572;2023-05-18T09:47:19;5;3;
54553;PMS5003;40450;55.848;-3.572;2023-05-18T09:49:49;6;6;
54553;PMS5003;40450;55.848;-3.572;2023-05-18T09:52:20;4;4;
54553;PMS5003;40450;55.848;-3.572;2023-05-18T09:57:20;7;6;
54553;PMS5003;40450;55.848;-3.572;2023-05-18T09:59:54;5;5;
54553;PMS5003;40450;55.848;-3.572;2023-05-18T10:02:21;8;8;
54553;PMS5003;40450;55.848;-3.572;2023-05-18T10:04:51;4;4;
54553;PMS5003;40450;55.848;-3.572;2023-05-18T10:07:22;5;5;
54553;PMS5003;40450;55.848;-3.572;2023-05-18T10:10:00;5;5;
54553;PMS5003;40450;55.848;-3.572;2023-05-18T10:12:22;6;6;
54553;PMS5003;40450;55.848;-3.572;2023-05-18T10:14:53;9;7;
54553;PMS5003;40450;55.848;-3.572;2023-05-18T10:17:23;7;5;
54553;PMS5003;40450;55.848;-3.572;2023-05-18T10:19:53;6;5;
54553;PMS5003;40450;55.848;-3.572;2023-05-18T10:22:23;8;6;
54553;PMS5003;40450;55.848;-3.572;2023-05-18T10:24:54;6;6;
54553;PMS5003;40450;55.848;-3.572;2023-05-18T10:27:26;6;6;
54553;PMS5003;40450;55.848;-3.572;2023-05-18T10:29:56;7;6;
54553;PMS5003;40450;55.848;-3.572;2023-05-18T10:32:25;8;6;
54553;PMS5003;40450;55.848;-3.572;2023-05-18T10:34:56;5;5;
54553;PMS5003;40450;55.848;-3.572;2023-05-18T10:37:26;6;4;
54553;PMS5003;40450;55.848;-3.572;2023-05-18T10:39:57;5;5;
54553;PMS5003;40450;55.848;-3.572;2023-05-18T10:42:28;7;6;
54553;PMS5003;40450;55.848;-3.572;2023-05-18T10:44:58;6;6;
54553;PMS5003;40450;55.848;-3.572;2023-05-18T10:47:29;6;4;
54553;PMS5003;40450;55.848;-3.572;2023-05-18T10:49:59;9;6;
54553;PMS5003;40450;55.848;-3.572;2023-05-18T10:52:29;7;7;
54553;PMS5003;40450;55.848;-3.572;2023-05-18T10:55:00;8;5;
54553;PMS5003;40450;55.848;-3.572;2023-05-18T10:57:32;5;5;
54553;PMS5003;40450;55.848;-3.572;2023-05-18T11:00:01;6;6;
54553;PMS5003;40450;55.848;-3.572;2023-05-18T11:02:30;5;5;
54553;PMS5003;40450;55.848;-3.572;2023-05-18T11:05:03;5;5;
54553;PMS5003;40450;55.848;-3.572;2023-05-18T11:07:31;5;5;
54553;PMS5003;40450;55.848;-3.572;2023-05-18T11:10:02;8;5;
54553;PMS5003;40450;55.848;-3.572;2023-05-18T11:12:32;5;5;
54553;PMS5003;40450;55.848;-3.572;2023-05-18T11:15:03;5;5;
54553;PMS5003;40450;55.848;-3.572;2023-05-18T11:17:33;7;7;
54553;PMS5003;40450;55.848;-3.572;2023-05-18T11:25:04;9;7;
54553;PMS5003;40450;55.848;-3.572;2023-05-18T11:27:34;8;8;
54553;PMS5003;40450;55.848;-3.572;2023-05-18T11:30:06;8;7;
54553;PMS5003;40450;55.848;-3.572;2023-05-18T11:32:35;4;4;
54553;PMS5003;40450;55.848;-3.572;2023-05-18T11:35:05;8;7;
54553;PMS5003;40450;55.848;-3.572;2023-05-18T11:40:06;7;7;
54553;PMS5003;40450;55.848;-3.572;2023-05-18T11:42:35;7;5;
54553;PMS5003;40450;55.848;-3.572;2023-05-18T11:45:06;6;6;
54553;PMS5003;40450;55.848;-3.572;2023-05-18T11:47:36;8;8;
54553;PMS5003;40450;55.848;-3.572;2023-05-18T11:50:07;6;6;
54553;PMS5003;40450;55.848;-3.572;2023-05-18T11:55:07;8;8;
54553;PMS5003;40450;55.848;-3.572;2023-05-18T11:57:38;5;4;
54553;PMS5003;40450;55.848;-3.572;2023-05-18T12:00:10;5;5;
54553;PMS5003;40450;55.848;-3.572;2023-05-18T12:02:41;6;6;
54553;PMS5003;40450;55.848;-3.572;2023-05-18T12:05:14;8;6;
54553;PMS5003;40450;55.848;-3.572;2023-05-18T12:07:40;5;5;
54553;PMS5003;40450;55.848;-3.572;2023-05-18T12:10:11;5;5;
54553;PMS5003;40450;55.848;-3.572;2023-05-18T12:12:41;8;7;
54553;PMS5003;40450;55.848;-3.572;2023-05-18T12:15:11;7;6;
54553;PMS5003;40450;55.848;-3.572;2023-05-18T12:17:42;5;5;
54553;PMS5003;40450;55.848;-3.572;2023-05-18T12:20:13;8;5;
54553;PMS5003;40450;55.848;-3.572;2023-05-18T12:22:43;5;5;
54553;PMS5003;40450;55.848;-3.572;2023-05-18T12:25:13;5;5;
54553;PMS5003;40450;55.848;-3.572;2023-05-18T12:27:44;7;7;
54553;PMS5003;40450;55.848;-3.572;2023-05-18T12:30:16;5;4;
54553;PMS5003;40450;55.848;-3.572;2023-05-18T12:32:45;7;7;
54553;PMS5003;40450;55.848;-3.572;2023-05-18T12:35:15;5;5;
54553;PMS5003;40450;55.848;-3.572;2023-05-18T12:37:45;6;6;
54553;PMS5003;40450;55.848;-3.572;2023-05-18T12:40:16;7;7;
54553;PMS5003;40450;55.848;-3.572;2023-05-18T12:42:50;4;4;
54553;PMS5003;40450;55.848;-3.572;2023-05-18T12:45:17;6;6;
54553;PMS5003;40450;55.848;-3.572;2023-05-18T12:47:47;5;5;
54553;PMS5003;40450;55.848;-3.572;2023-05-18T12:50:17;8;7;
54553;PMS5003;40450;55.848;-3.572;2023-05-18T12:52:48;2;2;
54553;PMS5003;40450;55.848;-3.572;2023-05-18T12:55:18;6;6;
54553;PMS5003;40450;55.848;-3.572;2023-05-18T13:00:19;4;4;
54553;PMS5003;40450;55.848;-3.572;2023-05-18T13:02:49;8;7;
54553;PMS5003;40450;55.848;-3.572;2023-05-18T13:05:22;6;6;
54553;PMS5003;40450;55.848;-3.572;2023-05-18T13:07:50;7;7;
54553;PMS5003;40450;55.848;-3.572;2023-05-18T13:10:20;8;7;
54553;PMS5003;40450;55.848;-3.572;2023-05-18T13:12:50;6;5;
54553;PMS5003;40450;55.848;-3.572;2023-05-18T13:15:21;7;7;
54553;PMS5003;40450;55.848;-3.572;2023-05-18T13:17:55;6;6;
54553;PMS5003;40450;55.848;-3.572;2023-05-18T13:20:21;8;7;
54553;PMS5003;40450;55.848;-3.572;2023-05-18T13:22:51;5;5;
54553;PMS5003;40450;55.848;-3.572;2023-05-18T13:25:22;5;4;
54553;PMS5003;40450;55.848;-3.572;2023-05-18T13:27:52;6;6;
54553;PMS5003;40450;55.848;-3.572;2023-05-18T13:30:22;5;5;
54553;PMS5003;40450;55.848;-3.572;2023-05-18T13:32:53;5;5;
54553;PMS5003;40450;55.848;-3.572;2023-05-18T13:35:23;7;7;
54553;PMS5003;40450;55.848;-3.572;2023-05-18T13:37:53;5;5;
54553;PMS5003;40450;55.848;-3.572;2023-05-18T13:40:24;7;5;
54553;PMS5003;40450;55.848;-3.572;2023-05-18T13:43:00;7;7;
54553;PMS5003;40450;55.848;-3.572;2023-05-18T13:45:25;6;6;
54553;PMS5003;40450;55.848;-3.572;2023-05-18T13:47:56;7;6;
54553;PMS5003;40450;55.848;-3.572;2023-05-18T13:50:26;5;4;
54553;PMS5003;40450;55.848;-3.572;2023-05-18T13:52:56;4;4;
54553;PMS5003;40450;55.848;-3.572;2023-05-18T13:55:26;5;5;
54553;PMS5003;40450;55.848;-3.572;2023-05-18T13:57:57;7;7;
54553;PMS5003;40450;55.848;-3.572;2023-05-18T14:00:27;5;4;
54553;PMS5003;40450;55.848;-3.572;2023-05-18T14:02:57;8;5;
54553;PMS5003;40450;55.848;-3.572;2023-05-18T14:05:27;5;5;
54553;PMS5003;40450;55.848;-3.572;2023-05-18T14:07:58;5;4;
54553;PMS5003;40450;55.848;-3.572;2023-05-18T14:10:28;8;6;
54553;PMS5003;40450;55.848;-3.572;2023-05-18T14:12:59;8;7;
54553;PMS5003;40450;55.848;-3.572;2023-05-18T14:15:29;10;8;
54553;PMS5003;40450;55.848;-3.572;2023-05-18T14:17:59;3;3;
54553;PMS5003;40450;55.848;-3.572;2023-05-18T14:20:30;7;6;
54553;PMS5003;40450;55.848;-3.572;2023-05-18T14:23:00;7;6;
54553;PMS5003;40450;55.848;-3.572;2023-05-18T14:25:30;7;7;
54553;PMS5003;40450;55.848;-3.572;2023-05-18T14:28:01;6;6;
54553;PMS5003;40450;55.848;-3.572;2023-05-18T14:30:31;7;7;
54553;PMS5003;40450;55.848;-3.572;2023-05-18T14:33:02;5;5;
54553;PMS5003;40450;55.848;-3.572;2023-05-18T14:35:33;8;6;
54553;PMS5003;40450;55.848;-3.572;2023-05-18T14:38:03;5;5;
54553;PMS5003;40450;55.848;-3.572;2023-05-18T14:40:33;10;7;
54553;PMS5003;40450;55.848;-3.572;2023-05-18T14:43:04;5;5;
54553;PMS5003;40450;55.848;-3.572;2023-05-18T14:45:34;6;6;
54553;PMS5003;40450;55.848;-3.572;2023-05-18T14:48:04;9;7;
54553;PMS5003;40450;55.848;-3.572;2023-05-18T14:50:35;5;5;
54553;PMS5003;40450;55.848;-3.572;2023-05-18T14:53:05;9;7;
54553;PMS5003;40450;55.848;-3.572;2023-05-18T14:55:35;6;5;
54553;PMS5003;40450;55.848;-3.572;2023-05-18T14:58:06;7;5;
54553;PMS5003;40450;55.848;-3.572;2023-05-18T15:00:36;5;5;
54553;PMS5003;40450;55.848;-3.572;2023-05-18T15:03:06;8;6;
54553;PMS5003;40450;55.848;-3.572;2023-05-18T15:05:37;6;6;
54553;PMS5003;40450;55.848;-3.572;2023-05-18T15:08:07;5;5;
54553;PMS5003;40450;55.848;-3.572;2023-05-18T15:10:37;5;5;
54553;PMS5003;40450;55.848;-3.572;2023-05-18T15:13:08;7;5;
54553;PMS5003;40450;55.848;-3.572;2023-05-18T15:15:38;5;5;
54553;PMS5003;40450;55.848;-3.572;2023-05-18T15:18:09;7;7;
54553;PMS5003;40450;55.848;-3.572;2023-05-18T15:20:39;6;6;
54553;PMS5003;40450;55.848;-3.572;2023-05-18T15:23:09;6;5;
54553;PMS5003;40450;55.848;-3.572;2023-05-18T15:25:40;6;6;
54553;PMS5003;40450;55.848;-3.572;2023-05-18T15:28:10;7;6;
54553;PMS5003;40450;55.848;-3.572;2023-05-18T15:30:40;8;6;
54553;PMS5003;40450;55.848;-3.572;2023-05-18T15:33:11;7;6;
54553;PMS5003;40450;55.848;-3.572;2023-05-18T15:35:41;7;5;
54553;PMS5003;40450;55.848;-3.572;2023-05-18T15:38:11;9;8;
54553;PMS5003;40450;55.848;-3.572;2023-05-18T15:40:42;7;7;
54553;PMS5003;40450;55.848;-3.572;2023-05-18T15:43:12;10;9;
54553;PMS5003;40450;55.848;-3.572;2023-05-18T15:45:43;5;5;
54553;PMS5003;40450;55.848;-3.572;2023-05-18T15:48:14;10;8;
54553;PMS5003;40450;55.848;-3.572;2023-05-18T15:50:44;7;7;
54553;PMS5003;40450;55.848;-3.572;2023-05-18T15:53:14;7;6;
54553;PMS5003;40450;55.848;-3.572;2023-05-18T15:55:45;6;5;
54553;PMS5003;40450;55.848;-3.572;2023-05-18T15:58:15;6;5;
54553;PMS5003;40450;55.848;-3.572;2023-05-18T16:00:46;4;4;
54553;PMS5003;40450;55.848;-3.572;2023-05-18T16:03:16;8;6;
54553;PMS5003;40450;55.848;-3.572;2023-05-18T16:05:46;5;5;
54553;PMS5003;40450;55.848;-3.572;2023-05-18T16:08:17;6;6;
54553;PMS5003;40450;55.848;-3.572;2023-05-18T16:10:47;5;5;
54553;PMS5003;40450;55.848;-3.572;2023-05-18T16:13:17;8;8;
54553;PMS5003;40450;55.848;-3.572;2023-05-18T16:15:48;8;6;
54553;PMS5003;40450;55.848;-3.572;2023-05-18T16:18:18;6;6;
54553;PMS5003;40450;55.848;-3.572;2023-05-18T16:20:48;5;5;
54553;PMS5003;40450;55.848;-3.572;2023-05-18T16:23:19;5;4;
54553;PMS5003;40450;55.848;-3.572;2023-05-18T16:25:49;8;6;
54553;PMS5003;40450;55.848;-3.572;2023-05-18T16:28:20;6;6;
54553;PMS5003;40450;55.848;-3.572;2023-05-18T16:30:50;7;6;
54553;PMS5003;40450;55.848;-3.572;2023-05-18T16:33:20;9;7;
54553;PMS5003;40450;55.848;-3.572;2023-05-18T16:35:51;5;5;
54553;PMS5003;40450;55.848;-3.572;2023-05-18T16:38:21;4;4;
54553;PMS5003;40450;55.848;-3.572;2023-05-18T16:40:51;4;4;
54553;PMS5003;40450;55.848;-3.572;2023-05-18T16:45:52;7;6;
54553;PMS5003;40450;55.848;-3.572;2023-05-18T16:48:22;7;5;
54553;PMS5003;40450;55.848;-3.572;2023-05-18T16:50:53;4;4;
54553;PMS5003;40450;55.848;-3.572;2023-05-18T16:53:28;8;7;
54553;PMS5003;40450;55.848;-3.572;2023-05-18T16:55:53;6;6;
54553;PMS5003;40450;55.848;-3.572;2023-05-18T16:58:23;6;6;
54553;PMS5003;40450;55.848;-3.572;2023-05-18T17:00:54;7;6;
54553;PMS5003;40450;55.848;-3.572;2023-05-18T17:03:24;5;5;
54553;PMS5003;40450;55.848;-3.572;2023-05-18T17:05:54;3;3;
54553;PMS5003;40450;55.848;-3.572;2023-05-18T17:08:25;5;5;
54553;PMS5003;40450;55.848;-3.572;2023-05-18T17:10:55;6;5;
54553;PMS5003;40450;55.848;-3.572;2023-05-18T17:13:26;3;3;
54553;PMS5003;40450;55.848;-3.572;2023-05-18T17:15:56;4;4;